Time;durP1;ratioP1;P1;durP2;ratioP2;P2;SDS_P1;SDS_P2;PMS_P1;PMS_P2;Temp;Humidity;BMP_temperature;BMP_pressure;BME280_temperature;BME280_humidity;BME280_pressure;Samples;Min_cycle;Max_cycle;Signal;HPM_P1;HPM_P2
2023/01/24 00:00:53;;;;;;;;;25.75;23.00;;;;;3.64;71.07;103934.97;5047087;28;12260;-68
2023/01/24 00:03:20;;;;;;;;;27.00;23.00;;;;;3.69;70.93;103935.66;5047130;28;11521;-69
2023/01/24 00:05:48;;;;;;;;;16.50;15.25;;;;;3.79;71.01;103930.72;5050999;28;11528;-68
2023/01/24 00:08:22;;;;;;;;;19.75;17.50;;;;;3.83;70.61;103934.97;5050637;28;11527;-68
2023/01/24 00:10:58;;;;;;;;;28.50;20.25;;;;;3.76;70.59;103926.41;5051388;28;12895;-67
2023/01/24 00:13:25;;;;;;;;;18.25;17.50;;;;;3.81;70.13;103929.72;5036404;28;11550;-68
2023/01/24 00:15:51;;;;;;;;;28.00;24.00;;;;;3.84;69.89;103926.88;5030817;28;11683;-67
2023/01/24 00:18:18;;;;;;;;;22.75;20.25;;;;;3.81;70.20;103916.41;5032124;28;11560;-69
2023/01/24 00:20:44;;;;;;;;;27.50;24.00;;;;;3.78;69.96;103913.88;5031257;28;11516;-68
2023/01/24 00:23:10;;;;;;;;;24.00;20.00;;;;;3.77;69.84;103922.81;5047912;28;11534;-69
2023/01/24 00:25:37;;;;;;;;;22.50;20.25;;;;;3.68;70.52;103923.25;5049900;28;11535;-68
2023/01/24 00:28:03;;;;;;;;;29.25;24.50;;;;;3.67;70.65;103916.19;5034669;28;11577;-67
2023/01/24 00:30:30;;;;;;;;;30.00;22.00;;;;;3.69;70.94;103914.34;5032262;28;11546;-66
2023/01/24 00:32:56;;;;;;;;;20.00;16.50;;;;;3.74;70.51;103914.97;5044546;28;11562;-65
2023/01/24 00:35:23;;;;;;;;;17.00;15.25;;;;;3.80;71.15;103916.47;5050619;28;11461;-66
2023/01/24 00:37:50;;;;;;;;;21.75;19.25;;;;;3.88;70.83;103920.47;5048761;28;12192;-66
2023/01/24 00:40:16;;;;;;;;;25.50;22.50;;;;;3.94;70.81;103908.66;5048272;28;11598;-66
2023/01/24 00:42:43;;;;;;;;;37.00;23.75;;;;;3.94;70.40;103900.66;5048605;28;11526;-66
2023/01/24 00:45:09;;;;;;;;;30.00;24.50;;;;;3.90;70.65;103902.63;5041966;28;11667;-66
2023/01/24 00:47:36;;;;;;;;;28.00;23.75;;;;;3.82;70.80;103898.59;5046060;28;11550;-67
2023/01/24 00:50:03;;;;;;;;;22.50;20.75;;;;;3.80;70.58;103900.47;5050601;28;11591;-65
2023/01/24 00:52:29;;;;;;;;;27.25;25.25;;;;;3.69;70.33;103899.22;5037700;28;11538;-65
2023/01/24 00:54:56;;;;;;;;;26.25;19.25;;;;;3.71;71.26;103894.66;5029286;28;11568;-67
2023/01/24 00:57:24;;;;;;;;;28.25;24.75;;;;;3.71;71.45;103899.97;5030447;28;11655;-67
2023/01/24 00:59:50;;;;;;;;;30.50;20.50;;;;;3.74;70.61;103898.97;5040751;28;11657;-67
2023/01/24 01:02:16;;;;;;;;;27.25;23.25;;;;;3.71;69.98;103901.78;5045497;28;11524;-67
2023/01/24 01:04:43;;;;;;;;;25.50;17.00;;;;;3.69;70.26;103888.56;5048090;28;11561;-67
2023/01/24 01:07:09;;;;;;;;;29.00;20.50;;;;;3.67;70.48;103897.53;5037773;28;11658;-67
2023/01/24 01:09:36;;;;;;;;;25.00;22.00;;;;;3.64;70.59;103897.69;5039673;28;11586;-66
2023/01/24 01:12:02;;;;;;;;;22.50;20.00;;;;;3.67;70.98;103900.19;5050179;28;11560;-67
2023/01/24 01:14:29;;;;;;;;;30.00;24.50;;;;;3.73;70.49;103902.59;5047810;28;11544;-66
2023/01/24 01:16:55;;;;;;;;;24.50;23.00;;;;;3.72;70.31;103893.72;5047735;28;12314;-67
2023/01/24 01:19:22;;;;;;;;;22.25;22.25;;;;;3.67;69.99;103897.53;5050806;28;11669;-66
2023/01/24 01:21:49;;;;;;;;;27.50;22.50;;;;;3.64;70.71;103898.53;5035116;28;12302;-65
2023/01/24 01:24:16;;;;;;;;;27.50;24.50;;;;;3.70;70.64;103903.59;5043334;28;11630;-66
2023/01/24 01:26:44;;;;;;;;;21.75;18.25;;;;;3.72;70.40;103899.03;5051009;28;11529;-67
2023/01/24 01:29:11;;;;;;;;;26.75;22.50;;;;;3.69;70.12;103904.53;5047820;28;11588;-67
2023/01/24 01:31:37;;;;;;;;;24.50;22.50;;;;;3.63;70.27;103893.31;5053644;28;11506;-66
2023/01/24 01:34:04;;;;;;;;;33.00;24.75;;;;;3.57;69.62;103893.59;5045376;28;11536;-66
2023/01/24 01:36:31;;;;;;;;;36.50;25.75;;;;;3.54;69.77;103899.94;5053730;28;11516;-67
2023/01/24 01:38:57;;;;;;;;;30.25;23.00;;;;;3.53;70.67;103900.88;5054353;28;11538;-67
2023/01/24 01:41:24;;;;;;;;;28.25;21.25;;;;;3.55;70.28;103901.66;5048527;28;11637;-67
2023/01/24 01:46:50;;;;;;;;;18.50;18.00;;;;;3.60;70.49;103906.75;5051646;28;11562;-67
2023/01/24 01:49:24;;;;;;;;;23.75;20.75;;;;;3.58;70.59;103903.31;5054244;28;11543;-65
2023/01/24 01:51:58;;;;;;;;;19.75;19.25;;;;;3.58;70.70;103904.19;5052594;28;11535;-67
2023/01/24 01:54:30;;;;;;;;;21.25;20.00;;;;;3.56;70.44;103906.03;5051377;28;11533;-66
2023/01/24 01:57:04;;;;;;;;;21.00;18.00;;;;;3.54;70.35;103902.59;5033710;28;11663;-65
2023/01/24 01:59:36;;;;;;;;;29.50;23.25;;;;;3.52;70.49;103895.59;5044630;28;11533;-66
2023/01/24 02:02:05;;;;;;;;;23.25;16.50;;;;;3.61;70.96;103893.38;5052786;28;11545;-66
2023/01/24 02:04:36;;;;;;;;;19.75;18.50;;;;;3.66;70.16;103882.50;5052816;28;12309;-67
2023/01/24 02:07:11;;;;;;;;;25.50;23.00;;;;;3.72;70.59;103883.03;5038185;28;11628;-67
2023/01/24 02:09:41;;;;;;;;;27.75;21.25;;;;;3.75;70.42;103887.38;5033821;28;11554;-66
2023/01/24 02:12:18;;;;;;;;;26.50;21.75;;;;;3.72;70.68;103884.84;5033589;28;12357;-67
2023/01/24 02:17:32;;;;;;;;;17.75;16.00;;;;;3.78;70.74;103876.56;5051157;28;11560;-66
2023/01/24 02:20:11;;;;;;;;;21.50;19.00;;;;;3.79;69.94;103882.75;5045079;28;12297;-68
2023/01/24 02:23:05;;;;;;;;;29.00;20.75;;;;;3.73;69.99;103881.28;5052390;28;11536;-66
2023/01/24 02:25:45;;;;;;;;;30.50;22.75;;;;;3.67;70.30;103876.22;5049853;28;11515;-66
2023/01/24 02:28:12;;;;;;;;;24.25;24.00;;;;;3.62;70.28;103883.59;5048776;28;11656;-66
2023/01/24 02:30:39;;;;;;;;;27.25;21.00;;;;;3.58;70.70;103885.53;5051721;28;11700;-67
2023/01/24 02:33:17;;;;;;;;;22.00;21.00;;;;;3.60;70.54;103885.44;5051201;28;12285;-66
2023/01/24 02:35:45;;;;;;;;;25.00;21.00;;;;;3.62;70.90;103892.44;5051193;28;11667;-66
2023/01/24 02:38:19;;;;;;;;;17.50;14.00;;;;;3.72;71.06;103884.84;5035289;28;11556;-67
2023/01/24 02:40:49;;;;;;;;;20.00;16.50;;;;;3.72;70.59;103885.72;5032931;28;11511;-66
2023/01/24 02:43:19;;;;;;;;;22.75;18.75;;;;;3.77;70.57;103882.84;5042124;28;11453;-68
2023/01/24 02:45:45;;;;;;;;;24.50;20.75;;;;;3.73;69.19;103881.28;5052408;28;12370;-66
2023/01/24 02:48:12;;;;;;;;;24.75;22.00;;;;;3.63;69.87;103872.84;5051340;28;11584;-67
2023/01/24 02:53:29;;;;;;;;;26.75;21.25;;;;;3.59;70.65;103878.41;5051132;28;11550;-68
2023/01/24 02:58:47;;;;;;;;;30.75;23.00;;;;;3.55;70.29;103869.69;5031296;28;11571;-67
2023/01/24 03:01:14;;;;;;;;;31.50;29.50;;;;;3.55;70.59;103887.47;5032472;28;11585;-67
2023/01/24 03:03:45;;;;;;;;;28.25;22.25;;;;;3.54;70.47;103888.41;5037979;28;12285;-67
2023/01/24 03:06:13;;;;;;;;;31.25;26.75;;;;;3.51;70.65;103878.75;5045437;28;11583;-66
2023/01/24 03:08:40;;;;;;;;;25.00;18.75;;;;;3.47;70.80;103870.06;5051673;28;11568;-67
2023/01/24 03:11:18;;;;;;;;;25.25;20.00;;;;;3.54;70.42;103883.94;5050752;28;11594;-67
2023/01/24 03:35:54;;;;;;;;;16.50;14.00;;;;;3.58;70.22;103864.22;5041992;28;11534;-67
2023/01/24 03:41:10;;;;;;;;;22.00;17.50;;;;;3.61;70.12;103860.56;5049551;28;11508;-67
2023/01/24 03:43:38;;;;;;;;;20.00;18.00;;;;;3.60;69.99;103875.66;5040059;28;11626;-66
2023/01/24 03:46:06;;;;;;;;;26.25;20.75;;;;;3.58;70.14;103872.22;5044865;28;12308;-67
2023/01/24 03:48:44;;;;;;;;;17.75;16.50;;;;;3.56;70.48;103871.41;5044459;28;11526;-67
2023/01/24 03:53:57;;;;;;;;;21.50;18.25;;;;;3.60;69.62;103877.47;5050484;28;11684;-67
2023/01/24 03:56:30;;;;;;;;;23.75;19.50;;;;;3.56;69.86;103871.41;5051732;28;11638;-65
2023/01/24 03:58:59;;;;;;;;;17.00;14.50;;;;;3.60;70.28;103872.13;5042276;28;11623;-65
2023/01/24 04:01:29;;;;;;;;;21.25;19.50;;;;;3.59;69.42;103875.75;5048531;28;11500;-67
2023/01/24 04:04:04;;;;;;;;;19.50;16.25;;;;;3.58;70.07;103868.69;5038179;28;11594;-67
2023/01/24 04:06:30;;;;;;;;;20.50;16.50;;;;;3.60;70.17;103866.81;5046810;28;11545;-67
2023/01/24 04:08:58;;;;;;;;;19.75;18.50;;;;;3.56;69.52;103874.06;5049349;28;11527;-66
2023/01/24 04:11:25;;;;;;;;;25.00;16.25;;;;;3.57;70.09;103870.50;5049706;28;11611;-67
2023/01/24 04:14:02;;;;;;;;;24.75;21.50;;;;;3.62;70.19;103868.47;5043608;28;11585;-67
2023/01/24 04:16:30;;;;;;;;;27.25;24.25;;;;;3.58;69.71;103876.69;5048898;28;11559;-66
2023/01/24 04:19:13;;;;;;;;;27.75;24.75;;;;;3.56;69.83;103883.88;5045836;28;11753;-66
2023/01/24 04:21:40;;;;;;;;;25.50;22.50;;;;;3.43;70.07;103878.28;5049469;28;11519;-67
2023/01/24 04:24:09;;;;;;;;;33.75;24.75;;;;;3.44;70.61;103877.31;5032606;28;11578;-66
2023/01/24 04:26:38;;;;;;;;;23.00;17.00;;;;;3.50;70.85;103878.84;5029750;28;11631;-68
2023/01/24 04:29:08;;;;;;;;;26.75;23.00;;;;;3.49;70.62;103878.00;5037660;28;11607;-67
2023/01/24 04:31:35;;;;;;;;;20.25;20.25;;;;;3.61;70.85;103884.53;5035170;28;11549;-67
2023/01/24 04:34:09;;;;;;;;;18.50;17.00;;;;;3.67;70.52;103886.88;5049031;28;12433;-65
2023/01/24 04:36:38;;;;;;;;;26.50;17.00;;;;;3.68;70.47;103881.47;5049426;28;11535;-65
2023/01/24 04:39:05;;;;;;;;;24.75;22.25;;;;;3.63;70.41;103882.66;5047322;28;11560;-65
2023/01/24 04:41:38;;;;;;;;;31.25;27.75;;;;;3.59;69.95;103887.25;5035113;28;11611;-67
2023/01/24 04:44:05;;;;;;;;;26.75;20.00;;;;;3.58;70.39;103882.88;5029153;28;11557;-66
2023/01/24 04:46:31;;;;;;;;;20.50;20.00;;;;;3.58;70.52;103895.31;5037027;28;11539;-66
2023/01/24 04:48:59;;;;;;;;;24.25;23.25;;;;;3.58;71.09;103884.69;5043756;28;11535;-66
2023/01/24 04:51:42;;;;;;;;;25.75;24.50;;;;;3.52;70.55;103884.94;5049397;28;12398;-66
2023/01/24 04:54:13;;;;;;;;;30.75;26.00;;;;;3.40;70.10;103889.06;5048633;28;11540;-65
2023/01/24 04:56:40;;;;;;;;;26.25;22.50;;;;;3.37;70.85;103892.75;5050526;28;11547;-67
2023/01/24 04:59:07;;;;;;;;;33.00;25.00;;;;;3.38;71.25;103889.16;5032129;28;11546;-68
2023/01/24 05:01:35;;;;;;;;;33.00;28.00;;;;;3.38;70.73;103889.16;5033087;28;12321;-67
2023/01/24 05:04:08;;;;;;;;;27.25;27.00;;;;;3.37;71.48;103881.25;5028798;28;12776;-66
2023/01/24 05:06:35;;;;;;;;;28.75;26.25;;;;;3.43;71.36;103881.78;5043473;28;11622;-66
2023/01/24 05:09:03;;;;;;;;;28.50;23.75;;;;;3.42;70.92;103888.06;5041123;28;12507;-66
2023/01/24 05:11:38;;;;;;;;;21.25;20.00;;;;;3.45;71.53;103890.59;5029164;28;11598;-66
2023/01/24 05:14:09;;;;;;;;;33.00;29.50;;;;;3.42;70.36;103892.53;5028778;28;11598;-66
2023/01/24 05:16:36;;;;;;;;;29.75;27.00;;;;;3.37;71.38;103898.06;5030671;28;11569;-67
2023/01/24 05:19:04;;;;;;;;;32.75;24.75;;;;;3.37;71.38;103902.53;5032823;28;11596;-66
2023/01/24 05:21:31;;;;;;;;;30.25;24.50;;;;;3.39;71.75;103909.50;5044260;28;11541;-66
2023/01/24 05:23:57;;;;;;;;;28.75;25.25;;;;;3.44;71.43;103911.94;5047884;28;11531;-65
2023/01/24 05:26:26;;;;;;;;;27.00;26.00;;;;;3.38;71.58;103905.13;5049015;28;12283;-66
2023/01/24 05:28:53;;;;;;;;;30.75;28.75;;;;;3.32;71.67;103918.72;5048321;28;11561;-67
2023/01/24 05:31:21;;;;;;;;;27.50;24.50;;;;;3.33;72.26;103920.44;5043886;28;11567;-67
2023/01/24 05:33:48;;;;;;;;;28.50;21.25;;;;;3.39;72.15;103904.19;5049262;28;11679;-66
2023/01/24 05:36:18;;;;;;;;;32.00;28.00;;;;;3.36;71.46;103909.66;5043770;28;11560;-65
2023/01/24 05:38:46;;;;;;;;;36.25;27.25;;;;;3.30;71.97;103911.75;5048559;28;11548;-66
2023/01/24 05:41:16;;;;;;;;;26.25;26.00;;;;;3.26;71.78;103915.47;5036476;28;11539;-66
2023/01/24 05:43:44;;;;;;;;;20.75;18.50;;;;;3.28;72.11;103913.59;5045498;28;11558;-66
2023/01/24 05:46:15;;;;;;;;;28.25;24.50;;;;;3.30;72.06;103911.75;5048764;28;11586;-67
2023/01/24 05:48:49;;;;;;;;;28.25;23.50;;;;;3.36;71.79;103915.00;5048806;28;11643;-67
2023/01/24 05:51:19;;;;;;;;;24.50;22.50;;;;;3.40;72.08;103911.25;5047077;28;11574;-67
2023/01/24 05:53:46;;;;;;;;;24.00;20.25;;;;;3.45;71.85;103916.34;5028582;28;11573;-67
2023/01/24 05:56:20;;;;;;;;;28.50;21.50;;;;;3.49;71.68;103904.63;5033197;28;11562;-66
2023/01/24 05:58:47;;;;;;;;;42.00;35.75;;;;;3.41;71.07;103920.09;5028427;28;11567;-67
2023/01/24 06:01:20;;;;;;;;;35.75;29.50;;;;;3.36;71.37;103909.66;5042231;28;11550;-66
2023/01/24 06:03:49;;;;;;;;;38.75;34.25;;;;;3.27;71.91;103922.53;5049431;28;11553;-66
2023/01/24 06:06:20;;;;;;;;;34.75;29.50;;;;;3.27;71.80;103917.19;5040859;28;11576;-67
2023/01/24 06:08:47;;;;;;;;;29.50;26.50;;;;;3.20;72.12;103916.59;5035428;28;11611;-66
2023/01/24 06:11:20;;;;;;;;;34.50;29.75;;;;;3.17;71.97;103920.28;5037740;28;11630;-67
2023/01/24 06:13:48;;;;;;;;;30.25;26.75;;;;;3.19;71.92;103912.22;5037854;28;11620;-67
2023/01/24 06:16:25;;;;;;;;;37.50;32.75;;;;;3.13;71.83;103916.03;5045393;28;11562;-66
2023/01/24 06:18:53;;;;;;;;;36.00;31.50;;;;;3.10;72.23;103916.19;5060334;28;11648;-67
2023/01/24 06:21:52;;;;;;;;;33.50;26.50;;;;;3.12;72.65;103919.66;5051447;28;11560;-66
2023/01/24 06:24:25;;;;;;;;;34.75;27.25;;;;;3.07;72.60;103921.63;5045100;28;12336;-66
2023/01/24 06:27:01;;;;;;;;;32.50;28.00;;;;;3.11;72.57;103922.34;5033694;28;12272;-66
2023/01/24 06:29:27;;;;;;;;;28.00;26.75;;;;;3.15;72.81;103915.97;5048811;28;11696;-67
2023/01/24 06:32:40;;;;;;;;;28.25;26.25;;;;;3.13;72.38;103917.84;5046172;28;11566;-67
2023/01/24 06:35:28;;;;;;;;;31.50;28.00;;;;;3.13;72.42;103917.84;5052782;28;11605;-67
2023/01/24 06:37:55;;;;;;;;;38.50;26.75;;;;;3.09;72.52;103918.91;5039748;28;11537;-66
2023/01/24 06:40:24;;;;;;;;;26.25;24.25;;;;;3.11;72.38;103919.69;5046549;28;11557;-66
2023/01/24 06:42:51;;;;;;;;;34.75;25.50;;;;;3.07;72.25;103921.63;5052391;28;11544;-67
2023/01/24 06:45:19;;;;;;;;;40.50;28.00;;;;;2.96;72.48;103921.28;5051709;28;11672;-67
2023/01/24 06:47:45;;;;;;;;;30.75;23.75;;;;;2.86;72.74;103922.59;5045080;28;11556;-67
2023/01/24 06:50:15;;;;;;;;;24.00;23.00;;;;;2.90;73.39;103935.69;5044857;28;12218;-68
2023/01/24 06:52:44;;;;;;;;;29.25;25.00;;;;;2.88;72.87;103942.91;5052527;28;11670;-66
2023/01/24 06:55:11;;;;;;;;;28.00;21.25;;;;;2.93;73.77;103938.22;5039682;28;12244;-66
2023/01/24 06:57:37;;;;;;;;;32.75;21.75;;;;;2.94;73.44;103931.09;5037589;28;11606;-67
2023/01/24 07:00:05;;;;;;;;;20.75;20.00;;;;;3.04;73.45;103939.53;5047656;28;11565;-66
2023/01/24 07:02:32;;;;;;;;;26.75;21.00;;;;;3.01;72.63;103937.88;5051557;28;11626;-66
2023/01/24 07:04:58;;;;;;;;;33.75;24.50;;;;;2.96;73.41;103943.44;5039873;28;11578;-68
2023/01/24 07:07:25;;;;;;;;;22.00;20.00;;;;;3.04;74.15;103931.53;5045653;28;11700;-66
2023/01/24 07:09:51;;;;;;;;;31.50;29.25;;;;;3.04;73.53;103936.88;5034240;28;11673;-67
2023/01/24 07:12:18;;;;;;;;;30.00;25.50;;;;;3.08;73.53;103941.13;5045548;28;11568;-67
2023/01/24 07:14:44;;;;;;;;;32.25;24.25;;;;;3.06;73.26;103945.66;5040566;28;11572;-67
2023/01/24 07:17:11;;;;;;;;;30.00;23.50;;;;;3.05;73.40;103950.13;5049682;28;11599;-67
2023/01/24 07:19:37;;;;;;;;;27.00;19.25;;;;;3.04;73.40;103952.84;5050885;28;11572;-66
2023/01/24 07:22:04;;;;;;;;;32.00;23.75;;;;;3.01;73.37;103958.31;5051389;28;12228;-66
2023/01/24 07:24:32;;;;;;;;;24.50;17.25;;;;;3.03;73.57;103959.09;5051192;28;11642;-67
2023/01/24 07:26:58;;;;;;;;;26.00;20.25;;;;;2.99;73.13;103961.03;5051658;28;11578;-67
2023/01/24 07:29:25;;;;;;;;;31.50;25.50;;;;;2.98;73.76;103954.00;5050858;28;11539;-67
2023/01/24 07:31:52;;;;;;;;;28.75;21.75;;;;;2.95;73.47;103960.28;5046946;28;12378;-67
2023/01/24 07:34:19;;;;;;;;;25.00;20.00;;;;;3.01;74.14;103964.50;5046473;28;11533;-66
2023/01/24 07:36:46;;;;;;;;;20.75;17.75;;;;;3.08;73.54;103963.31;5051599;28;11537;-67
2023/01/24 07:39:14;;;;;;;;;27.75;23.50;;;;;3.09;73.14;103965.03;5043803;28;12254;-67
2023/01/24 07:41:45;;;;;;;;;27.00;24.75;;;;;3.04;73.40;103964.38;5047297;28;11632;-66
2023/01/24 07:44:12;;;;;;;;;23.00;18.00;;;;;3.01;73.67;103961.84;5049744;28;11606;-67
2023/01/24 07:46:39;;;;;;;;;23.00;18.25;;;;;3.07;73.81;103960.69;5046304;28;12286;-66
2023/01/24 07:49:05;;;;;;;;;28.00;20.75;;;;;3.06;73.52;103962.50;5051128;28;11529;-67
2023/01/24 07:51:32;;;;;;;;;23.75;20.75;;;;;3.09;73.68;103961.50;5045463;28;11573;-67
2023/01/24 07:53:58;;;;;;;;;28.50;24.00;;;;;3.12;73.54;103962.25;5051173;28;12426;-68
2023/01/24 07:56:25;;;;;;;;;27.25;25.25;;;;;3.09;73.12;103974.81;5050023;28;11656;-65
2023/01/24 07:58:52;;;;;;;;;22.00;17.25;;;;;3.04;73.55;103963.47;5047642;28;11548;-66
2023/01/24 08:01:21;;;;;;;;;25.00;24.25;;;;;3.00;73.42;103967.22;5045877;28;11572;-66
2023/01/24 08:03:49;;;;;;;;;23.25;22.25;;;;;2.92;73.63;103973.75;5048027;28;12237;-66
2023/01/24 08:06:17;;;;;;;;;30.50;23.25;;;;;2.88;73.81;103973.97;5041688;28;11658;-66
2023/01/24 08:08:43;;;;;;;;;29.50;23.00;;;;;2.85;73.35;103974.94;5038138;28;11591;-65
2023/01/24 08:11:11;;;;;;;;;27.00;22.25;;;;;2.78;73.40;103977.94;5030714;28;11552;-66
2023/01/24 08:13:37;;;;;;;;;24.00;19.50;;;;;2.76;73.81;103975.34;5030425;28;11551;-66
2023/01/24 08:16:04;;;;;;;;;29.00;25.00;;;;;2.80;74.15;103978.75;5046316;28;11572;-66
2023/01/24 08:18:31;;;;;;;;;22.75;19.50;;;;;2.86;74.55;103974.00;5042288;28;11558;-66
2023/01/24 08:20:58;;;;;;;;;22.75;21.25;;;;;2.90;73.73;103982.72;5048194;28;11526;-67
2023/01/24 08:23:24;;;;;;;;;26.75;21.00;;;;;2.89;74.21;103986.34;5049501;28;11535;-67
2023/01/24 08:25:51;;;;;;;;;25.75;18.50;;;;;2.88;73.59;103985.47;5049561;28;11515;-67
2023/01/24 08:28:17;;;;;;;;;27.50;19.75;;;;;2.85;73.73;103990.06;5049169;28;11519;-66
2023/01/24 08:30:44;;;;;;;;;21.25;18.50;;;;;2.83;74.12;103995.41;5040133;28;11552;-66
2023/01/24 08:33:15;;;;;;;;;26.75;19.75;;;;;2.87;74.95;103994.34;5042443;28;11512;-66
2023/01/24 08:35:41;;;;;;;;;23.75;19.50;;;;;2.92;74.94;104000.38;5044789;28;11629;-65
2023/01/24 08:38:08;;;;;;;;;21.75;16.25;;;;;3.00;74.52;104007.13;5043287;28;11528;-65
2023/01/24 08:40:34;;;;;;;;;26.25;20.50;;;;;3.05;74.43;104003.34;5049397;28;11609;-66
2023/01/24 08:43:15;;;;;;;;;15.75;15.75;;;;;3.08;73.51;104011.22;5046648;28;11619;-66
2023/01/24 08:45:41;;;;;;;;;27.50;21.25;;;;;3.05;73.75;104016.66;5032762;28;12276;-66
2023/01/24 08:48:07;;;;;;;;;21.25;20.00;;;;;2.95;73.80;104012.66;5044564;28;11572;-67
2023/01/24 08:50:34;;;;;;;;;30.00;21.50;;;;;2.97;74.13;104017.00;5050586;28;11558;-66
2023/01/24 08:53:00;;;;;;;;;22.25;18.00;;;;;2.94;74.44;104021.56;5043663;28;12246;-66
2023/01/24 08:55:27;;;;;;;;;22.50;16.25;;;;;3.03;74.59;104025.63;5049140;28;11533;-66
2023/01/24 08:57:59;;;;;;;;;25.50;19.50;;;;;3.04;73.93;104022.94;5047467;28;11609;-67
2023/01/24 09:00:26;;;;;;;;;22.25;19.25;;;;;2.93;73.90;104023.38;5050308;28;11556;-66
2023/01/24 09:02:52;;;;;;;;;28.75;22.75;;;;;2.87;74.13;104028.09;5046944;28;11615;-66
2023/01/24 09:05:19;;;;;;;;;22.00;19.50;;;;;3.04;76.23;104030.91;5049784;28;11644;-67
2023/01/24 09:07:46;;;;;;;;;24.75;20.75;;;;;3.01;74.79;104028.38;5044461;28;11510;-67
2023/01/24 09:10:12;;;;;;;;;23.00;21.00;;;;;2.95;74.42;104032.13;5047286;28;11519;-66
2023/01/24 09:12:38;;;;;;;;;25.75;21.50;;;;;2.92;74.59;104026.13;5048672;28;11531;-67
2023/01/24 09:15:07;;;;;;;;;25.00;22.50;;;;;2.93;74.49;104026.03;5048557;28;11511;-66
2023/01/24 09:17:34;;;;;;;;;22.75;17.25;;;;;2.92;74.52;104024.31;5040595;28;11672;-66
2023/01/24 09:20:00;;;;;;;;;32.75;26.25;;;;;2.87;73.72;104028.94;5042771;28;11561;-66
2023/01/24 09:22:27;;;;;;;;;25.00;24.75;;;;;2.79;73.96;104023.09;5041494;28;11637;-68
2023/01/24 09:24:53;;;;;;;;;25.25;20.00;;;;;2.81;74.09;104025.69;5048498;28;12389;-65
2023/01/24 09:27:20;;;;;;;;;22.00;17.50;;;;;2.79;74.37;104028.41;5049048;28;11521;-67
2023/01/24 09:29:46;;;;;;;;;31.50;25.00;;;;;2.79;74.29;104023.09;5049745;28;11574;-66
2023/01/24 09:32:13;;;;;;;;;23.25;21.75;;;;;2.83;74.28;104027.34;5048599;28;11541;-66
2023/01/24 09:34:45;;;;;;;;;23.00;19.00;;;;;2.90;74.17;104036.81;5048447;28;11675;-67
2023/01/24 09:37:16;;;;;;;;;35.50;23.75;;;;;2.86;73.75;104037.00;5046608;28;12454;-65
2023/01/24 09:39:43;;;;;;;;;30.75;24.50;;;;;2.76;73.03;104033.88;5052059;28;11645;-68
2023/01/24 09:42:26;;;;;;;;;31.75;26.75;;;;;2.63;73.92;104040.63;5050815;28;11704;-65
2023/01/24 09:45:11;;;;;;;;;31.75;24.25;;;;;2.63;74.14;104040.63;5033436;28;11667;-66
2023/01/24 09:47:43;;;;;;;;;22.25;22.00;;;;;2.74;74.59;104046.38;5040126;28;12231;-66
2023/01/24 09:50:16;;;;;;;;;25.00;21.75;;;;;2.82;74.51;104044.25;5043150;28;11609;-65
2023/01/24 09:52:46;;;;;;;;;34.50;27.00;;;;;2.88;73.98;104048.47;5045918;28;11530;-66
2023/01/24 09:55:29;;;;;;;;;32.00;24.00;;;;;2.87;72.61;104044.06;5047660;28;12295;-66
2023/01/24 09:58:01;;;;;;;;;33.50;26.50;;;;;2.80;73.69;104051.44;5046285;28;11694;-66
2023/01/24 10:00:35;;;;;;;;;26.75;23.50;;;;;2.76;73.73;104039.19;5038246;28;12304;-66
2023/01/24 10:03:03;;;;;;;;;28.00;24.50;;;;;2.71;73.82;104047.38;5048307;28;11609;-67
2023/01/24 10:05:36;;;;;;;;;30.00;24.50;;;;;2.64;73.98;104045.91;5035559;28;12325;-67
2023/01/24 10:08:34;;;;;;;;;26.25;21.75;;;;;2.62;74.38;104053.06;5043314;28;12256;-67
2023/01/24 10:11:16;;;;;;;;;26.50;21.50;;;;;2.69;74.57;104045.69;5052818;28;11600;-67
2023/01/24 10:13:53;;;;;;;;;28.75;24.25;;;;;2.71;74.37;104035.84;5032561;28;11565;-65
2023/01/24 10:16:59;;;;;;;;;31.25;24.00;;;;;2.70;73.66;104050.09;5048249;28;11528;-68
2023/01/24 10:19:55;;;;;;;;;20.50;18.75;;;;;2.71;74.43;104041.16;5038243;28;11636;-67
2023/01/24 10:22:56;;;;;;;;;31.00;26.50;;;;;2.79;73.81;104044.38;5051521;28;11632;-67
2023/01/24 10:25:32;;;;;;;;;25.00;22.75;;;;;2.76;73.91;104046.31;5048560;28;11551;-66
2023/01/24 10:28:01;;;;;;;;;32.50;28.75;;;;;2.73;73.91;104045.50;5049749;28;11528;-67
2023/01/24 10:30:41;;;;;;;;;25.50;23.50;;;;;2.71;74.57;104039.41;5050320;28;11526;-68
2023/01/24 10:33:17;;;;;;;;;28.25;26.25;;;;;2.75;74.39;104047.22;5041111;28;11549;-66
2023/01/24 10:36:01;;;;;;;;;20.50;18.00;;;;;2.77;74.88;104038.25;5034927;28;11532;-68
2023/01/24 10:38:28;;;;;;;;;29.50;24.25;;;;;2.76;74.25;104033.88;5051755;28;11531;-66
2023/01/24 10:41:11;;;;;;;;;27.00;21.75;;;;;2.79;74.71;104035.53;5048231;28;11556;-68
2023/01/24 10:43:38;;;;;;;;;29.75;24.00;;;;;2.87;74.50;104034.25;5045440;28;11553;-69
2023/01/24 10:46:34;;;;;;;;;26.50;22.75;;;;;2.94;74.17;104026.91;5052042;28;11563;-67
2023/01/24 10:49:05;;;;;;;;;31.25;24.75;;;;;2.99;74.04;104024.91;5048955;28;11667;-68
2023/01/24 10:51:31;;;;;;;;;30.25;26.00;;;;;3.02;73.95;104024.78;5042924;28;12251;-67
2023/01/24 10:54:01;;;;;;;;;27.75;22.75;;;;;3.01;73.86;104025.72;5043871;28;11622;-71
2023/01/24 10:56:29;;;;;;;;;33.75;30.00;;;;;3.02;73.87;104021.25;5050157;28;11533;-66
2023/01/24 10:58:59;;;;;;;;;25.50;23.25;;;;;2.98;73.91;104012.53;5065404;28;11581;-68
2023/01/24 11:01:38;;;;;;;;;29.75;22.50;;;;;3.07;73.84;104022.75;5042381;28;11523;-66
2023/01/24 11:04:25;;;;;;;;;48.75;37.75;;;;;2.89;73.25;104020.91;5042582;28;11582;-66
2023/01/24 11:06:52;;;;;;;;;36.50;32.75;;;;;2.78;73.99;104025.81;5035851;28;11671;-66
2023/01/24 11:09:23;;;;;;;;;35.25;27.25;;;;;2.81;74.19;104023.91;5039070;28;12397;-67
2023/01/24 11:11:54;;;;;;;;;35.75;27.75;;;;;2.85;74.13;104016.66;5032024;28;11740;-67
2023/01/24 11:14:24;;;;;;;;;35.25;29.00;;;;;2.88;74.37;104012.06;5031465;28;12297;-67
2023/01/24 11:16:53;;;;;;;;;39.25;30.75;;;;;2.90;74.22;104018.19;5050426;28;11632;-67
2023/01/24 11:19:30;;;;;;;;;30.75;27.00;;;;;2.92;74.08;104012.81;5035056;28;11576;-67
2023/01/24 11:22:19;;;;;;;;;35.75;29.00;;;;;2.86;73.16;104015.72;5040413;28;11551;-65
2023/01/24 11:24:46;;;;;;;;;28.75;24.75;;;;;2.83;74.29;104010.53;5044153;28;11694;-66
2023/01/24 11:27:20;;;;;;;;;34.75;33.25;;;;;2.86;74.10;104003.28;5046189;28;11666;-66
2023/01/24 11:30:17;;;;;;;;;32.25;29.25;;;;;2.89;74.18;104005.81;5042137;28;11579;-67
2023/01/24 11:33:11;;;;;;;;;30.25;25.50;;;;;2.90;74.09;104002.22;5031354;28;11558;-67
2023/01/24 11:35:54;;;;;;;;;35.75;29.50;;;;;2.89;73.65;104005.81;5032301;28;11545;-66
2023/01/24 11:38:28;;;;;;;;;28.00;23.50;;;;;2.89;73.77;104003.16;5048967;28;12360;-68
2023/01/24 11:41:04;;;;;;;;;33.25;31.00;;;;;2.93;74.23;103994.09;5043010;28;11581;-67
2023/01/24 11:44:05;;;;;;;;;34.00;26.00;;;;;3.01;73.96;103984.94;5050598;28;11682;-67
2023/01/24 11:46:54;;;;;;;;;32.50;27.50;;;;;2.97;73.99;103979.75;5040283;28;11643;-67
2023/01/24 11:49:42;;;;;;;;;32.25;28.75;;;;;2.95;73.43;103988.72;5047171;28;11563;-69
2023/01/24 11:52:46;;;;;;;;;33.75;27.75;;;;;2.89;73.83;103986.34;5030945;28;11580;-67
2023/01/24 11:55:35;;;;;;;;;27.75;25.75;;;;;2.94;74.20;103979.00;5030068;28;11697;-66
2023/01/24 11:58:45;;;;;;;;;23.50;19.25;;;;;2.96;74.05;103977.16;5031934;28;11673;-66
2023/01/24 12:01:28;;;;;;;;;33.00;27.25;;;;;3.00;73.96;103972.53;5034673;28;11529;-66
2023/01/24 12:04:29;;;;;;;;;30.00;26.75;;;;;3.00;73.84;103976.09;5031430;28;11561;-67
2023/01/24 12:07:11;;;;;;;;;33.75;29.25;;;;;3.00;74.08;103965.44;5032751;28;11555;-67
2023/01/24 12:10:29;;;;;;;;;42.25;31.75;;;;;3.04;73.72;103966.16;5048181;28;11554;-66
2023/01/24 12:14:07;;;;;;;;;33.75;26.25;;;;;3.08;73.79;103967.72;5016430;28;11582;-67
2023/01/24 12:16:52;;;;;;;;;30.50;28.25;;;;;3.10;73.74;103953.44;4963588;28;11517;-68